This is the latest recevied weather packets stored in our database for station/object ZL1KPB-13. If no packets are shown the sender has not sent any weather packets the latest 10 day(s).
| Time | Temp. | Humidity | Pressure | Rain* | Wind** | Luminosity | Snow |
|---|---|---|---|---|---|---|---|
| 1777534247 | 11.11° C | 72% | 1038 hPa | 0 mm | - | - | - |
| 1777531836 | 11.11° C | 72% | 1037.6 hPa | 0 mm | - | - | - |
| 1777528817 | 12.22° C | 70% | 1037.1 hPa | 0 mm | - | - | - |
| 1777528273 | 12.22° C | 68% | 1037 hPa | 0 mm | - | - | - |
| 1777527670 | 12.78° C | 64% | 1036.9 hPa | 0 mm | - | - | - |
| 1777527067 | 13.33° C | 63% | 1036.9 hPa | 0 mm | - | - | - |
| 1777520425 | 20° C | 44% | 1036.5 hPa | 0 mm | - | - | - |
| 1777519875 | 20° C | 44% | 1036.4 hPa | 0 mm | - | - | - |
| 1777515025 | 20° C | 45% | 1036 hPa | 0 mm | - | - | - |
| 1777514476 | 19.44° C | 46% | 1036 hPa | 0 mm | - | - | - |
| 1777512659 | 20.56° C | 48% | 1036 hPa | 0 mm | - | - | - |
| 1777505495 | 19.44° C | 62% | 1036.5 hPa | 0 mm | - | - | - |
| 1777504281 | 18.33° C | 66% | 1036.2 hPa | 0 mm | - | - | - |
| 1777503048 | 20° C | 60% | 1036 hPa | 0 mm | - | - | - |
| 1777497651 | 19.44° C | 65% | 1035.5 hPa | 0 mm | - | - | - |
| 1777494073 | 12.78° C | 99% | 1034.3 hPa | 0 mm | - | - | - |
| 1777482674 | 12.22° C | 99% | 1032.5 hPa | 0 mm | - | - | - |
| 1777473637 | 12.78° C | 98% | 1031.9 hPa | 0 mm | - | - | - |
| 1777470665 | 12.22° C | 99% | 1032 hPa | 0 mm | - | - | - |
| 1777469451 | 12.78° C | 98% | 1032.2 hPa | 0 mm | - | - | - |
| 1777467635 | 12.22° C | 98% | 1032.2 hPa | 0 mm | - | - | - |
| 1777464053 | 12.78° C | 99% | 1032.2 hPa | 0 mm | - | - | - |
| 1777463448 | 12.78° C | 99% | 1032.1 hPa | 0 mm | - | - | - |
| 1777462841 | 12.78° C | 99% | 1032 hPa | 0 mm | - | - | - |
| 1777457482 | 13.33° C | 99% | 1031.6 hPa | 0 mm | - | - | - |
* Rain latest hour (hover to see other rain measurements)
** Current wind speed in m/s (hover to see current wind gust speed)